.
WxDataArchive / Data Records for 2008-06-25
2008-06-24 June 2008 2008-06-26

Data Records for Wednesday, 25 June 2008

Time	Temp	Chill	HIndex	Humid	Dewpt	 Wind 	HiWind	WindDir	Rain 	Barom 
-----	----	-----	------	-----	-----	------	------	-------	-----	----- 
00:00	60.1	60.1	60.1	91	57.5	0	0	---	0.00	30.113 
00:05	59.9	59.9	59.9	91	57.3	0	0	---	0.00	30.114 
00:10	59.9	59.9	59.9	91	57.3	0	0	---	0.00	30.114 
00:15	59.8	59.8	59.8	91	57.2	0	0	---	0.00	30.113 
00:20	59.8	59.8	59.8	91	57.2	0	0	---	0.00	30.113 
00:25	59.6	59.6	59.6	92	57.3	0	0	---	0.00	30.113 
00:30	59.6	59.6	59.6	92	57.3	0	0	---	0.00	30.107 
00:35	59.5	59.5	59.5	92	57.2	0	0	---	0.00	30.104 
00:40	59.3	59.3	59.3	92	57.0	0	0	---	0.00	30.102 
00:45	59.3	59.3	59.3	92	57.0	0	0	---	0.00	30.102 
00:50	59.3	59.3	59.3	92	57.0	0	0	---	0.00	30.101 
00:55	59.2	59.2	59.2	92	56.9	0	0	---	0.00	30.099 
01:00	59.2	59.2	59.2	92	56.9	0	0	---	0.00	30.098 
01:05	59.0	59.0	59.0	93	57.0	0	0	---	0.00	30.096 
01:10	59.0	59.0	59.0	93	57.0	0	0	---	0.00	30.093 
01:15	59.0	59.0	59.0	93	57.0	0	0	---	0.00	30.092 
01:20	59.2	59.2	59.2	93	57.2	0	0	---	0.00	30.094 
01:25	59.3	59.3	59.3	93	57.3	0	0	---	0.00	30.092 
01:30	59.3	59.3	59.3	93	57.3	0	0	---	0.00	30.094 
01:35	59.3	59.3	59.3	94	57.6	0	0	---	0.00	30.098 
01:40	59.5	59.5	59.5	94	57.8	0	0	---	0.00	30.100 
01:45	59.5	59.5	59.5	94	57.8	0	0	---	0.00	30.100 
01:50	59.6	59.6	59.6	94	57.9	0	0	---	0.00	30.100 
01:55	59.8	59.8	59.8	94	58.1	0	0	---	0.00	30.099 
02:00	59.9	59.9	59.9	94	58.2	0	0	---	0.00	30.099 
02:05	60.1	60.1	60.1	94	58.4	0	0	---	0.00	30.098 
02:10	60.1	60.1	60.1	94	58.4	0	0	---	0.00	30.097 
02:15	60.1	60.1	60.1	94	58.4	0	0	---	0.00	30.097 
02:20	60.2	60.2	60.2	94	58.5	0	0	---	0.00	30.096 
02:25	60.4	60.4	60.4	94	58.7	0	0	---	0.00	30.098 
02:30	60.5	60.5	60.5	94	58.8	0	0	---	0.00	30.100 
02:35	60.5	60.5	60.5	94	58.8	0	0	---	0.00	30.103 
02:40	60.5	60.5	60.5	94	58.8	0	0	---	0.00	30.102 
02:45	60.7	60.7	60.7	94	59.0	0	0	---	0.00	30.101 
02:50	60.7	60.7	60.7	93	58.7	0	0	---	0.00	30.098 
02:55	60.9	60.9	60.9	93	58.9	0	0	---	0.00	30.098 
03:00	60.9	60.9	60.9	93	58.9	0	0	---	0.00	30.097 
03:05	61.0	61.0	61.0	93	59.0	0	0	---	0.00	30.097 
03:10	61.0	61.0	61.0	93	59.0	0	0	---	0.00	30.097 
03:15	61.2	61.2	61.2	93	59.2	0	0	---	0.00	30.096 
03:20	61.2	61.2	61.2	93	59.2	0	0	---	0.00	30.094 
03:25	61.2	61.2	61.2	93	59.2	0	0	---	0.00	30.092 
03:30	61.3	61.3	61.3	92	59.0	0	0	---	0.00	30.090 
03:35	61.3	61.3	61.3	92	59.0	0	0	---	0.00	30.089 
03:40	61.5	61.5	61.5	92	59.2	0	0	---	0.00	30.086 
03:45	61.5	61.5	61.5	92	59.2	0	0	---	0.00	30.085 
03:50	61.5	61.5	61.5	92	59.2	0	0	---	0.00	30.085 
03:55	61.5	61.5	61.5	91	58.8	0	0	---	0.00	30.088 
04:00	61.5	61.5	61.5	91	58.8	0	0	---	0.00	30.085 
04:05	61.5	61.5	61.5	90	58.5	0	0	---	0.00	30.085 
04:10	61.6	61.6	61.6	90	58.6	0	0	---	0.00	30.084 
04:15	61.5	61.5	61.5	88	57.9	0	0	---	0.00	30.084 
04:20	61.6	61.6	61.6	87	57.7	0	0	---	0.00	30.084 
04:25	61.8	61.8	61.8	87	57.9	0	0	---	0.00	30.085 
04:30	62.0	62.0	62.0	87	58.1	0	0	---	0.00	30.087 
04:35	62.1	62.1	62.1	88	58.5	0	0	---	0.00	30.090 
04:40	62.3	62.3	62.3	87	58.4	0	0	---	0.00	30.092 
04:45	62.3	62.3	62.3	87	58.4	0	0	---	0.00	30.094 
04:50	62.4	62.4	62.4	87	58.5	0	0	---	0.00	30.095 
04:55	62.4	62.4	62.4	87	58.5	0	0	---	0.00	30.096 
05:00	62.4	62.4	62.4	86	58.2	0	0	---	0.00	30.095 
05:05	62.6	62.6	62.6	85	58.0	0	0	---	0.00	30.094 
05:10	62.7	62.7	62.7	85	58.1	0	0	---	0.00	30.094 
05:15	62.7	62.7	62.7	84	57.8	0	0	---	0.00	30.095 
05:20	62.9	62.9	62.9	84	58.0	0	0	---	0.00	30.097 
05:25	63.1	63.1	63.1	84	58.2	0	0	---	0.00	30.098 
05:30	63.2	63.2	63.2	84	58.3	0	0	---	0.00	30.101 
05:35	63.4	63.4	63.4	83	58.1	0	0	---	0.00	30.105 
05:40	63.7	63.7	63.7	82	58.1	0	1	292	0.00	30.109 
05:45	64.0	64.0	64.0	81	58.0	0	1	292	0.00	30.108 
05:50	64.3	64.3	64.3	81	58.3	0	2	292	0.00	30.103 
05:55	64.5	64.5	64.5	82	58.9	0	2	68	0.00	30.098 
06:00	64.3	64.3	64.3	83	59.0	0	2	68	0.00	30.096 
06:05	64.3	64.3	64.3	82	58.7	0	1	68	0.00	30.097 
06:10	64.3	64.3	64.3	82	58.7	0	1	68	0.00	30.096 
06:15	64.5	64.5	64.5	83	59.2	0	1	68	0.00	30.095 
06:20	64.5	64.5	64.5	83	59.2	0	1	68	0.00	30.092 
06:25	64.5	64.5	64.5	84	59.6	0	1	68	0.00	30.092 
06:30	64.7	64.7	64.7	84	59.7	0	1	68	0.00	30.092 
06:35	64.8	64.8	64.8	85	60.2	0	0	---	0.00	30.089 
06:40	64.8	64.8	64.8	85	60.2	0	1	68	0.00	30.088 
06:45	65.0	65.0	65.0	85	60.4	0	1	68	0.00	30.087 
06:50	65.0	65.0	65.0	85	60.4	0	1	68	0.00	30.084 
06:55	65.2	65.2	65.2	85	60.6	0	0	---	0.00	30.089 
07:00	65.3	65.3	65.3	85	60.7	0	0	---	0.00	30.094 
07:05	65.6	65.6	65.6	84	60.6	0	0	---	0.00	30.097 
07:10	65.8	65.8	65.8	84	60.8	0	0	---	0.00	30.098 
07:15	66.1	66.1	66.1	83	60.8	0	1	68	0.00	30.101 
07:20	66.3	66.3	66.3	83	61.0	0	0	---	0.00	30.104 
07:25	66.4	66.4	66.4	82	60.7	0	1	68	0.00	30.101 
07:30	66.4	66.4	66.4	82	60.7	0	1	68	0.00	30.096 
07:35	66.6	66.6	66.6	81	60.6	0	1	68	0.00	30.096 
07:40	66.8	66.8	66.8	81	60.8	0	1	68	0.00	30.092 
07:45	66.8	66.8	66.8	81	60.8	0	1	68	0.00	30.093 
07:50	66.9	66.9	66.9	81	60.9	0	1	68	0.00	30.087 
07:55	66.9	66.9	66.9	81	60.9	0	1	68	0.00	30.087 
08:00	67.1	67.1	67.1	81	61.1	0	1	68	0.00	30.087 
08:05	67.4	67.4	67.4	81	61.4	0	0	---	0.00	30.090 
08:10	67.8	67.8	67.8	81	61.7	0	0	---	0.00	30.086 
08:15	67.9	67.9	67.9	79	61.1	0	2	68	0.00	30.085 
08:20	68.4	68.4	68.4	78	61.3	0	1	68	0.00	30.084 
08:25	68.8	68.8	68.8	78	61.7	0	2	68	0.00	30.084 
08:30	69.3	69.3	69.3	77	61.8	0	2	68	0.00	30.084 
08:35	69.8	69.8	69.8	76	61.9	0	1	68	0.00	30.083 
08:40	70.3	70.3	70.3	74	61.6	0	3	68	0.00	30.083 
08:45	70.4	70.4	70.4	74	61.7	0	1	45	0.00	30.082 
08:50	70.8	70.8	70.8	73	61.7	1	3	270	0.00	30.076 
08:55	71.1	71.1	71.1	73	62.0	0	3	248	0.00	30.071 
09:00	71.6	71.6	71.6	70	61.3	0	2	248	0.00	30.067 
09:05	71.8	71.8	71.8	70	61.5	0	2	248	0.00	30.072 
09:10	71.6	71.6	71.6	69	60.9	1	2	248	0.00	30.084 
09:15	71.6	71.6	71.6	69	60.9	0	1	248	0.00	30.078 
09:20	71.5	71.5	71.5	70	61.2	0	1	248	0.00	30.081 
09:25	70.9	70.9	70.9	73	61.8	1	3	248	0.04	30.101 
09:30	68.4	68.4	68.4	82	62.7	2	5	292	0.10	30.096 
09:35	67.4	67.4	67.4	86	63.1	1	2	248	0.01	30.107 
09:40	66.9	66.9	66.9	89	63.5	0	1	248	0.01	30.116 
09:45	66.4	66.4	66.4	90	63.4	0	1	248	0.01	30.120 
09:50	66.1	66.1	66.1	91	63.4	1	3	248	0.06	30.131 
09:55	65.8	65.8	65.8	92	63.4	1	4	248	0.05	30.132 
10:00	65.6	65.6	65.6	92	63.2	2	9	248	0.02	30.125 
10:05	65.3	65.3	65.3	92	62.9	1	3	270	0.01	30.124 
10:10	65.2	65.2	65.2	93	63.1	1	3	248	0.01	30.124 
10:15	65.2	65.2	65.2	93	63.1	0	1	338	0.02	30.121 
10:20	65.0	65.0	65.0	93	62.9	0	3	270	0.01	30.120 
10:25	65.0	65.0	65.0	94	63.2	0	2	270	0.01	30.121 
10:30	65.0	65.0	65.0	94	63.2	0	1	270	0.02	30.120 
10:35	65.0	65.0	65.0	94	63.2	0	1	270	0.02	30.129 
10:40	65.2	65.2	65.2	95	63.7	0	2	248	0.01	30.125 
10:45	65.2	65.2	65.2	95	63.7	0	1	248	0.01	30.118 
10:50	65.2	65.2	65.2	95	63.7	0	1	248	0.02	30.120 
10:55	65.2	65.2	65.2	95	63.7	0	1	248	0.01	30.109 
11:00	65.3	65.3	65.3	95	63.8	0	1	248	0.02	30.103 
11:05	65.5	65.5	65.5	95	64.0	0	1	248	0.01	30.092 
11:10	65.5	65.5	65.5	95	64.0	0	1	248	0.02	30.087 
11:15	65.5	65.5	65.5	95	64.0	0	1	248	0.02	30.078 
11:20	65.5	65.5	65.5	95	64.0	1	2	248	0.00	30.074 
11:25	65.3	65.3	65.3	95	63.8	0	2	202	0.01	30.074 
11:30	65.3	65.3	65.3	95	63.8	1	3	68	0.00	30.065 
11:35	65.3	65.3	65.3	96	64.1	1	2	112	0.00	30.063 
11:40	65.5	65.5	65.5	96	64.3	0	3	90	0.00	30.061 
11:45	65.6	65.6	65.6	96	64.4	1	4	90	0.00	30.054 
11:50	66.0	66.0	66.0	96	64.8	0	2	90	0.00	30.056 
11:55	66.1	66.1	66.1	96	64.9	0	2	90	0.00	30.056 
12:00	66.4	66.4	66.4	96	65.2	0	2	90	0.00	30.054 
12:05	66.8	66.8	66.8	96	65.6	1	3	90	0.00	30.055 
12:10	67.1	67.1	67.1	96	65.9	1	3	112	0.00	30.057 
12:15	67.6	67.6	67.6	95	66.1	1	4	112	0.00	30.056 
12:20	67.6	67.6	67.6	95	66.1	2	5	112	0.00	30.055 
12:25	68.1	68.1	68.1	94	66.3	1	4	112	0.00	30.050 
12:30	68.3	68.3	68.3	92	65.9	2	6	112	0.00	30.042 
12:35	68.8	68.8	68.8	92	66.4	2	4	90	0.00	30.041 
12:40	68.9	68.9	68.9	90	65.8	1	4	112	0.00	30.039 
12:45	69.3	69.3	69.3	89	65.9	2	5	112	0.00	30.040 
12:50	69.8	69.8	69.8	88	66.1	1	4	112	0.00	30.041 
12:55	69.9	69.9	69.9	87	65.8	1	3	112	0.00	30.042 
13:00	70.4	70.4	70.4	87	66.3	1	3	112	0.00	30.039 
13:05	71.1	71.1	71.1	87	67.0	1	2	112	0.00	30.038 
13:10	71.5	71.5	71.5	85	66.7	1	3	90	0.00	30.033 
13:15	72.1	72.1	72.1	86	67.7	0	2	90	0.00	30.032 
13:20	72.7	72.7	72.7	83	67.2	1	4	68	0.00	30.024 
13:25	73.2	73.2	73.2	82	67.4	2	5	112	0.00	30.022 
13:30	73.7	73.7	73.7	82	67.9	1	5	90	0.00	30.018 
13:35	74.4	74.4	74.4	79	67.4	1	4	248	0.00	30.013 
13:40	74.7	74.7	74.7	77	67.0	2	5	292	0.00	30.007 
13:45	74.9	74.9	74.9	78	67.6	1	5	90	0.00	30.006 
13:50	74.9	74.9	74.9	77	67.2	2	4	68	0.00	30.002 
13:55	74.9	74.9	74.9	77	67.2	1	5	112	0.00	30.000 
14:00	75.1	75.1	76.1	77	67.4	1	3	45	0.00	29.996 
14:05	75.6	75.6	76.7	77	67.9	1	3	112	0.00	29.995 
14:10	76.0	76.0	77.3	76	67.9	1	6	112	0.00	29.993 
14:15	76.7	76.7	78.2	76	68.5	1	4	248	0.00	29.986 
14:20	77.7	77.7	79.7	73	68.3	1	4	292	0.00	29.985 
14:25	78.1	78.1	80.2	72	68.3	1	4	270	0.00	29.985 
14:30	78.1	78.1	80.1	69	67.1	2	7	90	0.00	29.980 
14:35	78.1	78.1	80.2	70	67.5	1	3	45	0.00	29.978 
14:40	77.9	77.9	79.9	71	67.7	1	7	248	0.00	29.973 
14:45	77.9	77.9	79.9	72	68.1	1	5	270	0.00	29.971 
14:50	77.9	77.9	79.9	72	68.1	0	2	270	0.00	29.970 
14:55	77.9	77.9	79.9	71	67.7	1	2	270	0.00	29.970 
15:00	77.9	77.9	79.9	71	67.7	1	3	22	0.00	29.969 
15:05	77.9	77.9	79.9	71	67.7	1	4	270	0.00	29.967 
15:10	77.9	77.9	80.0	73	68.5	1	2	90	0.00	29.958 
15:15	78.3	78.3	80.6	73	68.9	0	2	90	0.00	29.954 
15:20	78.5	78.5	80.8	72	68.7	1	4	112	0.00	29.950 
15:25	78.6	78.6	80.9	71	68.4	1	3	112	0.00	29.951 
15:30	79.0	79.0	81.6	72	69.2	0	2	90	0.00	29.949 
15:35	79.4	79.4	82.0	70	68.7	2	6	90	0.00	29.949 
15:40	79.9	79.9	82.7	69	68.8	2	5	112	0.00	29.944 
15:45	80.3	80.3	83.3	69	69.2	1	3	90	0.00	29.938 
15:50	80.7	80.7	84.0	69	69.6	1	4	0	0.00	29.934 
15:55	80.5	80.5	83.5	68	68.9	2	6	90	0.00	29.935 
16:00	79.9	79.9	82.6	68	68.4	1	4	112	0.00	29.932 
16:05	79.6	79.6	82.2	69	68.5	2	6	90	0.00	29.933 
16:10	79.0	79.0	81.3	69	67.9	2	5	112	0.00	29.934 
16:15	78.3	78.3	80.3	67	66.4	2	5	270	0.00	29.932 
16:20	77.9	77.9	79.8	67	66.0	2	5	270	0.00	29.929 
16:25	77.2	77.2	79.0	65	64.5	1	4	248	0.00	29.925 
16:30	76.7	76.7	78.5	65	64.0	1	4	248	0.00	29.934 
16:35	75.8	75.8	77.8	63	62.3	2	5	315	0.00	29.940 
16:40	75.3	75.3	77.3	65	62.7	0	1	315	0.00	29.927 
16:45	75.1	75.1	77.1	66	62.9	0	1	315	0.00	29.923 
16:50	74.9	74.9	74.9	66	62.8	0	1	315	0.00	29.916 
16:55	74.6	74.6	74.6	68	63.3	0	1	315	0.00	29.910 
17:00	74.4	74.4	74.4	71	64.4	0	0	---	0.02	29.909 
17:05	73.7	73.7	73.7	77	66.0	0	0	---	0.01	29.906 
17:10	72.8	72.8	72.8	81	66.6	0	0	---	0.00	29.908 
17:15	72.3	72.3	72.3	83	66.8	0	1	315	0.00	29.909 
17:20	72.0	72.0	72.0	84	66.9	0	0	---	0.00	29.910 
17:25	72.0	72.0	72.0	83	66.5	0	1	315	0.00	29.909 
17:30	72.0	72.0	72.0	83	66.5	0	0	---	0.00	29.908 
17:35	71.6	71.6	71.6	84	66.5	0	0	---	0.00	29.908 
17:40	71.5	71.5	71.5	85	66.7	0	0	---	0.00	29.904 
17:45	71.1	71.1	71.1	85	66.4	0	0	---	0.00	29.908 
17:50	70.9	70.9	70.9	86	66.5	0	0	---	0.00	29.908 
17:55	70.9	70.9	70.9	86	66.5	0	0	---	0.00	29.903 
18:00	70.9	70.9	70.9	87	66.8	0	0	---	0.00	29.901 
18:05	71.1	71.1	71.1	87	67.0	0	0	---	0.00	29.895 
18:10	71.3	71.3	71.3	88	67.6	0	0	---	0.00	29.897 
18:15	71.6	71.6	71.6	88	67.8	0	1	315	0.00	29.900 
18:20	71.8	71.8	71.8	88	68.0	0	1	315	0.00	29.897 
18:25	72.0	72.0	72.0	87	67.9	0	1	315	0.00	29.894 
18:30	72.0	72.0	72.0	87	67.9	0	0	---	0.00	29.894 
18:35	72.1	72.1	72.1	87	68.0	0	1	315	0.00	29.893 
18:40	72.3	72.3	72.3	86	67.9	0	0	---	0.00	29.894 
18:45	72.7	72.7	72.7	86	68.3	0	0	---	0.00	29.896 
18:50	72.8	72.8	72.8	86	68.4	0	1	315	0.00	29.896 
18:55	72.8	72.8	72.8	86	68.4	0	1	315	0.00	29.892 
19:00	72.8	72.8	72.8	85	68.0	0	0	---	0.00	29.891 
19:05	72.8	72.8	72.8	86	68.4	0	1	315	0.00	29.889 
19:10	72.7	72.7	72.7	86	68.3	0	0	---	0.00	29.888 
19:15	72.7	72.7	72.7	86	68.3	0	0	---	0.00	29.890 
19:20	72.7	72.7	72.7	86	68.3	0	0	---	0.00	29.891 
19:25	73.0	73.0	73.0	85	68.2	0	1	315	0.00	29.890 
19:30	73.0	73.0	73.0	85	68.2	0	1	315	0.00	29.890 
19:35	73.0	73.0	73.0	85	68.2	0	1	315	0.00	29.889 
19:40	72.8	72.8	72.8	86	68.4	0	1	315	0.00	29.888 
19:45	72.7	72.7	72.7	86	68.3	0	1	315	0.00	29.889 
19:50	72.5	72.5	72.5	86	68.1	0	0	---	0.00	29.890 
19:55	72.5	72.5	72.5	87	68.4	0	0	---	0.00	29.890 
20:00	72.3	72.3	72.3	87	68.2	0	0	---	0.00	29.891 
20:05	72.3	72.3	72.3	87	68.2	0	0	---	0.00	29.886 
20:10	72.1	72.1	72.1	88	68.3	0	0	---	0.00	29.886 
20:15	72.0	72.0	72.0	88	68.2	0	0	---	0.00	29.885 
20:20	72.0	72.0	72.0	88	68.2	0	1	315	0.00	29.886 
20:25	71.8	71.8	71.8	88	68.0	0	0	---	0.00	29.888 
20:30	71.8	71.8	71.8	88	68.0	0	1	315	0.00	29.890 
20:35	72.0	72.0	72.0	88	68.2	0	1	315	0.00	29.892 
20:40	72.1	72.1	72.1	88	68.3	0	0	---	0.00	29.893 
20:45	72.1	72.1	72.1	88	68.3	0	0	---	0.00	29.891 
20:50	72.1	72.1	72.1	88	68.3	0	0	---	0.00	29.894 
20:55	72.0	72.0	72.0	88	68.2	0	0	---	0.00	29.896 
21:00	71.8	71.8	71.8	88	68.0	0	0	---	0.00	29.898 
21:05	71.6	71.6	71.6	88	67.8	0	0	---	0.00	29.904 
21:10	71.5	71.5	71.5	89	68.1	0	0	---	0.00	29.906 
21:15	71.1	71.1	71.1	89	67.7	0	0	---	0.00	29.908 
21:20	70.9	70.9	70.9	89	67.5	0	0	---	0.00	29.909 
21:25	70.8	70.8	70.8	90	67.7	0	0	---	0.00	29.908 
21:30	70.4	70.4	70.4	90	67.3	0	0	---	0.00	29.908 
21:35	70.3	70.3	70.3	91	67.5	0	0	---	0.00	29.908 
21:40	70.1	70.1	70.1	91	67.3	0	0	---	0.00	29.908 
21:45	69.9	69.9	69.9	91	67.1	0	0	---	0.00	29.908 
21:50	69.8	69.8	69.8	92	67.4	0	0	---	0.00	29.909 
21:55	69.4	69.4	69.4	92	67.0	0	0	---	0.00	29.908 
22:00	69.3	69.3	69.3	92	66.9	0	0	---	0.00	29.908 
22:05	69.1	69.1	69.1	92	66.7	0	0	---	0.00	29.908 
22:10	68.9	68.9	68.9	92	66.5	0	0	---	0.00	29.907 
22:15	68.8	68.8	68.8	92	66.4	0	0	---	0.00	29.907 
22:20	68.6	68.6	68.6	93	66.5	0	0	---	0.00	29.907 
22:25	68.4	68.4	68.4	93	66.3	0	0	---	0.00	29.905 
22:30	68.3	68.3	68.3	93	66.2	0	0	---	0.00	29.907 
22:35	68.1	68.1	68.1	93	66.0	0	0	---	0.00	29.906 
22:40	68.1	68.1	68.1	93	66.0	0	0	---	0.00	29.904 
22:45	68.1	68.1	68.1	94	66.3	0	0	---	0.00	29.903 
22:50	67.9	67.9	67.9	94	66.1	0	0	---	0.00	29.902 
22:55	67.9	67.9	67.9	94	66.1	0	0	---	0.00	29.901 
23:00	67.9	67.9	67.9	94	66.1	0	0	---	0.00	29.900 
23:05	67.8	67.8	67.8	94	66.0	0	0	---	0.00	29.898 
23:10	67.8	67.8	67.8	94	66.0	0	0	---	0.00	29.900 
23:15	67.8	67.8	67.8	94	66.0	0	0	---	0.00	29.899 
23:20	67.8	67.8	67.8	94	66.0	0	0	---	0.00	29.898 
23:25	67.8	67.8	67.8	95	66.3	0	0	---	0.00	29.900 
23:30	67.6	67.6	67.6	95	66.1	0	0	---	0.00	29.898 
23:35	67.6	67.6	67.6	95	66.1	0	0	---	0.00	29.900 
23:40	67.4	67.4	67.4	95	65.9	0	0	---	0.00	29.901 
23:45	67.4	67.4	67.4	95	65.9	0	0	---	0.00	29.900 
23:50	67.3	67.3	67.3	95	65.8	0	0	---	0.00	29.898 
23:55	67.3	67.3	67.3	95	65.8	0	0	---	0.00	29.896 

CoCoRaHS
IN-AL-39
A2 Web Hosting
Creative Commons License
GoDaddy
Look for:

loaded 2017-10-18 07:43:31 • last modified 2010-11-18 10:43:29
Privacy PolicyDisclaimer
• wx.awcolley.com is powered by PmWiki v.2002016 •
• all content (unless otherwise noted) © 2017 A W Colley